Latest Weather Observations for Ernabella/Pukatja

IDD60801

Issued at 5:01 am CST Sunday 22 October 2017 (issued every 30 minutes, with the page automatically refreshed every 10 minutes)

About weather observations | Map of weather stations | Latest weather observations for NT | Other Formats
Station Details ID: 016097 Name: PUKATJA Lat: -26.26 Lon: 132.18 Height: 703.2 m
Data from the previous 72 hours. | See also: Recent months at Ernabella/Pukatja
Date/Time
CST
Temp
°C
App
Temp
°C
Dew
Point
°C
Rel
Hum
%
Delta-T
°C
Wind Press
QNH
hPa
Press
MSL
hPa
Rain since
9am
mm
Dir  Spd
km/h
Gust
km/h
Spd
kts
Gust
kts
22/05:00am 10.3 6.2 0.1 49 4.3 E 11 13 6 7 1021.7 1018.3 0.0
22/04:30am 11.3 7.6 -0.2 45 4.9 NE 9 11 5 6 1021.3 1018.0 0.0
22/04:00am 12.5 10.1 0.0 42 5.4 ENE 2 7 1 4 1021.2 1017.8 0.0
22/03:30am 12.3 9.0 0.1 43 5.2 NNE 7 9 4 5 1021.0 1017.6 0.0
22/03:00am 14.0 10.7 -0.1 38 6.1 NE 7 9 4 5 1021.3 1018.0 0.0
22/02:30am 14.3 10.2 -0.5 36 6.4 E 11 13 6 7 1021.6 1018.2 0.0
22/02:00am 14.7 10.5 -0.6 35 6.6 E 11 13 6 7 1021.8 1018.4 0.0
22/01:30am 15.6 11.1 -0.6 33 7.0 E 13 17 7 9 1022.1 1018.7 0.0
22/01:00am 15.5 11.3 -0.7 33 7.1 ENE 11 15 6 8 1022.5 1019.1 0.0
22/12:30am 18.3 12.6 -1.0 27 8.5 E 19 26 10 14 1022.8 1019.5 0.0
22/12:00am 18.5 13.1 -1.3 26 8.7 ESE 17 28 9 15 1023.1 1019.7 0.0
 
Date/Time
CST
Temp
°C
App
Temp
°C
Dew
Point
°C
Rel
Hum
%
Delta-T
°C
Wind Press
QNH
hPa
Press
MSL
hPa
Rain since
9am
mm
Dir  Spd
km/h
Gust
km/h
Spd
kts
Gust
kts
21/11:30pm 18.5 13.5 -1.3 26 8.7 ESE 15 20 8 11 1023.3 1019.9 0.0
21/11:00pm 19.6 13.7 -0.9 25 9.2 ESE 20 26 11 14 1023.5 1020.1 0.0
21/10:30pm 19.8 14.1 -0.8 25 9.3 ESE 19 24 10 13 1023.6 1020.2 0.0
21/10:00pm 19.9 15.1 -0.1 26 9.2 SE 15 22 8 12 1023.8 1020.4 0.0
21/09:30pm 19.5 15.0 -0.5 26 9.0 SSE 13 20 7 11 1023.7 1020.3 0.0
21/09:00pm 20.5 15.9 -0.7 24 9.6 SE 13 17 7 9 1023.6 1020.2 0.0
21/08:30pm 21.2 16.4 -0.1 24 9.8 SE 15 24 8 13 1023.5 1020.1 0.0
21/08:00pm 21.3 16.4 -0.6 23 10.0 SE 15 22 8 12 1023.4 1020.0 0.0
21/07:30pm 21.8 16.8 -1.5 21 10.5 ESE 15 20 8 11 1023.2 1019.8 0.0
21/07:00pm 23.2 17.4 -1.7 19 11.3 SE 19 30 10 16 1022.8 1019.5 0.0
21/06:30pm 24.4 18.8 -3.0 16 12.3 SE 17 26 9 14 1022.7 1019.4 0.0
21/06:00pm 25.3 19.6 -4.1 14 13.0 SSE 17 26 9 14 1022.5 1019.1 0.0
21/05:30pm 26.2 20.5 -3.4 14 13.3 SE 17 26 9 14 1022.3 1018.9 0.0
21/05:00pm 26.5 20.2 -4.1 13 13.7 ESE 20 33 11 18 1022.3 1018.9 0.0
21/04:30pm 27.0 21.4 -2.7 14 13.6 SSE 17 26 9 14 1022.2 1018.8 0.0
21/04:00pm 27.1 21.1 -2.7 14 13.7 SSE 19 30 10 16 1022.4 1019.0 0.0
21/03:30pm 27.2 21.8 -1.7 15 13.5 ESE 17 28 9 15 1022.6 1019.3 0.0
21/03:00pm 26.7 20.5 -3.0 14 13.6 SSE 20 30 11 16 1023.0 1019.6 0.0
21/02:30pm 26.6 20.6 -3.1 14 13.5 SSE 19 33 10 18 1023.3 1019.9 0.0
21/02:00pm 26.6 21.1 -2.1 15 13.3 SSE 17 30 9 16 1023.6 1020.2 0.0
21/01:30pm 27.2 22.0 -2.6 14 13.7 SSE 15 28 8 15 1023.9 1020.6 0.0
21/01:00pm 25.8 20.3 -1.9 16 12.8 ESE 17 26 9 14 1024.6 1021.2 0.0
21/12:30pm 25.2 19.3 -2.4 16 12.6 SE 19 30 10 16 1024.9 1021.5 0.0
21/12:00pm 23.7 18.4 -0.6 20 11.4 SE 17 26 9 14 1025.3 1022.0 0.0
21/11:30am 23.7 18.2 0.7 22 11.0 E 19 28 10 15 1025.6 1022.3 0.0
21/11:00am 23.4 18.1 1.7 24 10.5 ESE 19 28 10 15 1025.9 1022.6 0.0
21/10:30am 22.2 16.3 1.8 26 9.8 E 22 32 12 17 1026.2 1022.8 0.0
21/10:00am 21.2 15.0 2.0 28 9.2 ESE 24 32 13 17 1026.6 1023.3 0.0
21/09:30am 20.3 14.2 2.6 31 8.5 ESE 24 35 13 19 1026.6 1023.3 0.0
21/09:00am 19.3 13.2 2.6 33 8.0 E 24 33 13 18 1026.9 1023.6 0.0
21/08:30am 17.9 10.6 2.6 36 7.2 E 30 39 16 21 1026.9 1023.6 0.0
21/08:00am 17.4 11.2 2.2 36 7.1 E 24 33 13 18 1026.8 1023.5 0.0
21/07:30am 16.6 10.5 2.6 39 6.6 E 24 32 13 17 1026.5 1023.2 0.0
21/07:00am 15.5 9.7 2.3 41 6.1 E 22 30 12 16 1026.3 1022.9 0.0
21/06:30am 14.4 8.5 2.0 43 5.6 E 22 30 12 16 1025.9 1022.6 0.0
21/06:00am 14.1 7.9 2.0 44 5.5 ESE 24 37 13 20 1025.7 1022.4 0.0
21/05:30am 14.3 8.4 1.9 43 5.6 ESE 22 32 12 17 1025.6 1022.3 0.0
21/05:00am 14.6 8.3 1.5 41 5.9 ESE 24 35 13 19 1025.4 1022.1 0.0
21/04:30am 14.8 8.8 1.0 39 6.2 ESE 22 33 12 18 1025.3 1022.0 0.0
21/04:00am 15.4 9.7 0.8 37 6.6 SE 20 30 11 16 1025.5 1022.2 0.0
21/03:30am 15.6 9.1 0.6 36 6.7 ESE 24 35 13 19 1025.5 1022.2 0.0
21/03:00am 16.4 9.9 0.5 34 7.2 SE 24 37 13 20 1025.5 1022.2 0.0
21/02:30am 17.1 9.5 0.3 32 7.5 SE 30 41 16 22 1025.6 1022.3 0.0
21/02:00am 17.6 10.6 -0.2 30 7.9 SE 26 35 14 19 1025.8 1022.5 0.0
21/01:30am 17.9 11.3 -0.4 29 8.1 SE 24 33 13 18 1026.3 1022.9 0.0
21/01:00am 18.3 11.2 -1.0 27 8.6 SE 26 35 14 19 1026.6 1023.3 0.0
21/12:30am 18.7 12.8 -0.7 27 8.6 SE 20 32 11 17 1026.9 1023.6 0.0
21/12:00am 19.0 13.3 -0.9 26 8.9 SE 19 28 10 15 1027.0 1023.7 0.0
 
Date/Time
CST
Temp
°C
App
Temp
°C
Dew
Point
°C
Rel
Hum
%
Delta-T
°C
Wind Press
QNH
hPa
Press
MSL
hPa
Rain since
9am
mm
Dir  Spd
km/h
Gust
km/h
Spd
kts
Gust
kts
20/11:30pm 19.2 13.2 -1.3 25 9.1 SE 20 28 11 15 1027.1 1023.8 0.0
20/11:00pm 20.1 12.9 -1.7 23 9.6 SE 26 35 14 19 1027.0 1023.7 0.0
20/10:30pm 20.3 13.9 -1.5 23 9.7 ESE 22 30 12 16 1027.0 1023.7 0.0
20/10:00pm 21.0 15.1 -0.9 23 10.0 SE 20 32 11 17 1027.0 1023.7 0.0
20/09:30pm 21.5 14.9 -0.5 23 10.1 ESE 24 35 13 19 1026.8 1023.5 0.0
20/09:00pm 22.0 15.2 0.5 24 10.1 SE 26 46 14 25 1026.6 1023.3 0.0
20/08:30pm 22.4 16.3 2.5 27 9.7 SE 24 39 13 21 1026.3 1022.9 0.0
20/08:00pm 22.7 17.0 4.7 31 9.2 ESE 24 32 13 17 1025.9 1022.6 0.0
20/07:30pm 23.2 16.8 5.2 31 9.3 SE 28 43 15 23 1025.5 1022.2 0.0
20/07:00pm 23.5 18.1 6.3 33 9.1 ESE 24 32 13 17 1025.1 1021.7 0.0
20/06:30pm 24.3 17.9 7.0 33 9.3 ESE 30 44 16 24 1024.8 1021.4 0.0
20/06:00pm 25.0 19.8 7.2 32 9.7 ESE 24 37 13 20 1024.4 1021.1 0.0
20/05:30pm 25.7 19.5 7.8 32 9.8 SE 30 43 16 23 1024.2 1020.9 0.0
20/05:00pm 26.3 20.6 8.3 32 10.0 ESE 28 41 15 22 1024.1 1020.8 0.0
20/04:30pm 26.1 20.8 8.6 33 9.7 ESE 26 37 14 20 1024.1 1020.8 0.0
20/04:00pm 28.0 23.3 9.3 31 10.7 SE 24 44 13 24 1024.0 1020.7 0.0
20/03:30pm 26.9 21.8 9.3 33 10.0 ESE 26 41 14 22 1024.3 1021.0 0.0
20/03:00pm 27.7 23.4 9.5 32 10.4 ESE 22 37 12 20 1024.4 1021.1 0.0
20/02:30pm 27.1 22.8 9.5 33 10.0 SE 22 35 12 19 1024.8 1021.4 0.0
20/02:00pm 26.7 21.3 9.5 34 9.8 ESE 28 41 15 22 1025.1 1021.7 0.0
20/01:30pm 26.1 20.2 9.0 34 9.6 ESE 30 43 16 23 1025.5 1022.2 0.0
20/01:00pm 26.0 21.3 9.4 35 9.4 ESE 24 39 13 21 1025.7 1022.4 0.0
20/12:30pm 25.1 20.6 8.6 35 9.1 SE 22 39 12 21 1026.1 1022.7 0.0
20/12:00pm 24.0 19.0 8.0 36 8.8 ESE 24 33 13 18 1026.5 1023.2 0.0
20/11:30am 24.2 19.3 8.6 37 8.6 ESE 24 35 13 19 1026.8 1023.5 0.0
20/11:00am 22.9 17.4 7.4 37 8.3 SE 26 35 14 19 1027.1 1023.8 0.0
20/10:30am 21.6 16.3 6.7 38 7.8 ESE 24 35 13 19 1027.4 1024.1 0.0
20/10:00am 21.1 15.8 6.6 39 7.6 SE 24 39 13 21 1027.6 1024.2 0.0
20/09:30am 20.8 15.7 6.0 38 7.6 SE 22 32 12 17 1027.6 1024.2 0.0
20/09:00am 19.3 14.1 5.7 41 6.9 ESE 22 32 12 17 1027.4 1024.1 0.0
20/08:30am 18.3 12.8 5.8 44 6.3 SE 24 37 13 20 1027.1 1023.8 0.0
20/08:00am 17.5 12.3 5.4 45 6.0 ESE 22 37 12 20 1027.1 1023.8 0.0
20/07:30am 16.6 11.3 4.9 46 5.7 SE 22 32 12 17 1026.7 1023.4 0.0
20/07:00am 16.2 11.5 5.2 48 5.4 SE 19 28 10 15 1026.7 1023.4 0.0
20/06:30am 15.7 12.1 6.7 55 4.6 SE 15 24 8 13 1026.4 1023.0 0.0
20/06:00am 15.7 12.0 8.0 60 4.0 SE 17 28 9 15 1025.9 1022.6 0.0
20/05:30am 16.2 12.2 8.4 60 4.1 SE 19 30 10 16 1025.5 1022.2 0.0
20/05:00am 16.5 11.9 8.2 58 4.3 SE 22 35 12 19 1025.2 1021.9 0.0
20/04:30am 16.8 11.8 8.2 57 4.5 ESE 24 41 13 22 1024.9 1021.5 0.0
20/04:00am 17.0 12.0 8.2 56 4.6 SE 24 37 13 20 1024.7 1021.3 0.0
20/03:30am 17.2 12.6 8.1 55 4.8 SE 22 37 12 20 1024.6 1021.2 0.0
20/03:00am 17.5 12.5 8.1 54 5.0 SE 24 39 13 21 1024.6 1021.2 0.0
20/02:34am 17.9 12.1 7.9 52 5.3 SE 28 46 15 25 1024.2 1020.9 0.0
20/02:30am 18.0 12.6 8.0 52 5.3 SE 26 43 14 23 1024.3 1021.0 0.0
20/02:00am 18.4 13.9 8.7 53 5.2 SE 22 37 12 20 1024.3 1021.0 0.0
20/01:30am 17.9 14.1 9.8 59 4.4 SSE 20 35 11 19 1024.3 1021.0 0.0
20/01:00am 18.1 12.6 10.7 62 4.1 ESE 30 39 16 21 1024.3 1021.0 0.0
20/12:30am 20.4 15.9 8.7 47 6.3 SE 22 30 12 16 1025.4 1022.1 0.0
20/12:00am 20.7 17.1 8.4 45 6.7 SSE 17 28 9 15 1025.4 1022.1 0.0
 
Date/Time
CST
Temp
°C
App
Temp
°C
Dew
Point
°C
Rel
Hum
%
Delta-T
°C
Wind Press
QNH
hPa
Press
MSL
hPa
Rain since
9am
mm
Dir  Spd
km/h
Gust
km/h
Spd
kts
Gust
kts
19/11:30pm 21.5 17.9 8.4 43 7.1 S 17 24 9 13 1025.4 1022.1 0.0
19/11:00pm 21.9 17.1 8.8 43 7.2 S 24 33 13 18 1025.1 1021.7 0.0
19/10:30pm 22.4 17.8 9.6 44 7.1 S 24 35 13 19 1024.8 1021.4 0.0
19/10:00pm 22.6 17.6 9.7 44 7.2 S 26 37 14 20 1024.4 1021.1 0.0
19/09:30pm 22.9 17.6 10.0 44 7.2 SSE 28 41 15 22 1024.1 1020.8 0.0
19/09:00pm 23.2 19.2 10.3 44 7.3 SSE 22 32 12 17 1023.6 1020.2 0.0
19/08:37pm 23.8 18.8 10.8 44 7.5 S 28 46 15 25 1023.2 1019.8 0.0
19/08:30pm 24.0 20.2 11.0 44 7.5 S 22 32 12 17 1023.1 1019.7 0.0
19/08:00pm 24.4 20.5 10.7 42 7.8 SSE 22 33 12 18 1022.7 1019.4 0.0
19/07:30pm 24.9 20.6 10.8 41 8.1 SSE 24 37 13 20 1022.2 1018.8 0.0
19/07:00pm 25.9 22.3 10.5 38 8.9 SE 20 32 11 17 1021.7 1018.3 0.0
19/06:30pm 26.5 22.2 10.6 37 9.2 SE 24 37 13 20 1021.1 1017.7 0.0
19/06:00pm 27.1 23.3 11.2 37 9.3 SSE 22 32 12 17 1020.8 1017.4 0.0
19/05:30pm 27.2 23.9 10.8 36 9.5 SE 19 26 10 14 1020.5 1017.1 0.0
19/05:00pm 26.9 23.1 11.0 37 9.3 SE 22 33 12 18 1020.4 1017.0 0.0
19/04:30pm 28.0 23.9 11.5 35 9.7 SE 24 33 13 18 1020.1 1016.7 0.0
19/04:00pm 28.2 24.7 12.1 37 9.6 SSE 22 32 12 17 1020.1 1016.7 0.0
19/03:30pm 27.8 24.2 11.8 37 9.5 S 22 33 12 18 1020.0 1016.5 0.0
19/03:00pm 26.7 23.0 11.6 39 8.9 SSE 22 32 12 17 1020.2 1016.8 0.0
19/02:30pm 26.4 23.1 11.7 40 8.6 S 20 30 11 16 1020.4 1017.0 0.0
19/02:00pm 26.7 23.0 11.6 39 8.9 SSE 22 35 12 19 1020.7 1017.3 0.0
19/01:30pm 27.6 24.3 11.6 37 9.4 SSE 20 37 11 20 1020.9 1017.5 0.0
19/01:00pm 27.9 24.3 11.9 37 9.5 SE 22 32 12 17 1021.0 1017.6 0.0
19/12:30pm 27.8 24.6 11.8 37 9.5 SSE 20 32 11 17 1021.2 1017.8 0.0
19/12:00pm 27.4 24.4 12.6 40 8.9 SSE 20 30 11 16 1021.2 1017.8 0.0
19/11:30am 25.0 21.2 11.2 42 8.0 SSE 22 30 12 16 1021.3 1018.0 0.0
19/11:00am 25.2 21.9 11.7 43 7.9 S 20 28 11 15 1021.7 1018.3 0.0
19/10:30am 25.4 22.4 11.9 43 7.9 S 19 28 10 15 1021.6 1018.2 0.0
19/10:00am 24.3 21.7 11.9 45 7.3 S 17 26 9 14 1021.7 1018.3 0.0
19/09:30am 23.5 21.0 11.2 46 7.1 S 15 24 8 13 1021.5 1018.1 0.0
19/09:00am 22.8 20.3 10.9 47 6.8 SSW 15 24 8 13 1021.2 1017.8 0.0
19/08:30am 22.1 19.1 10.6 48 6.5 S 17 26 9 14 1021.0 1017.6 0.0
19/08:00am 21.4 17.9 10.3 49 6.2 S 19 35 10 19 1020.5 1017.1 0.0
19/07:30am 20.6 17.4 10.1 51 5.8 SSE 17 28 9 15 1020.3 1016.9 0.0
19/07:00am 20.1 17.4 10.2 53 5.5 SW 15 20 8 11 1020.2 1016.8 0.0
19/06:30am 19.7 16.6 10.4 55 5.2 S 17 28 9 15 1019.4 1016.0 0.0
19/06:00am 20.0 16.9 10.4 54 5.4 S 17 28 9 15 1018.8 1015.3 0.0
19/05:30am 21.2 16.5 9.4 47 6.5 SSE 24 33 13 18 1018.1 1014.7 0.0
19/05:00am 21.8 17.0 9.0 44 7.0 SSE 24 35 13 19 1017.7 1014.3 0.0
19/04:30am 22.3 17.4 8.4 41 7.6 SSE 24 35 13 19 1017.6 1014.2 0.0

Other Formats:

Comma delimited format used in spreadsheet applications
http://www.bom.gov.au/fwo/IDD60801/IDD60801.94474.axf

JavaScript Object Notation format (JSON) in row-major order
http://www.bom.gov.au/fwo/IDD60801/IDD60801.94474.json